createdAt,value
2024-05-09T00:00:51.510Z,13.38
2024-05-09T00:03:21.409Z,13.25
2024-05-09T00:05:51.620Z,13.88
2024-05-09T00:08:21.573Z,11.93
2024-05-09T00:10:51.495Z,12.57
2024-05-09T00:13:23.938Z,14.48
2024-05-09T00:15:53.773Z,14.15
2024-05-09T00:18:23.749Z,13.00
2024-05-09T00:20:53.968Z,14.80
2024-05-09T00:23:23.926Z,13.93
2024-05-09T00:25:53.700Z,13.85
2024-05-09T00:28:26.245Z,15.05
2024-05-09T00:30:56.057Z,11.98
2024-05-09T00:33:26.402Z,18.23
2024-05-09T00:35:56.296Z,12.83
2024-05-09T00:38:26.060Z,13.68
2024-05-09T00:40:55.981Z,12.52
2024-05-09T00:43:28.414Z,12.50
2024-05-09T00:45:58.601Z,12.93
2024-05-09T00:48:29.893Z,15.37
2024-05-09T00:51:00.554Z,13.25
2024-05-09T00:53:31.089Z,13.52
2024-05-09T00:56:04.199Z,12.88
2024-05-09T00:58:36.840Z,14.02
2024-05-09T01:01:07.398Z,12.90
2024-05-09T01:03:37.579Z,15.25
2024-05-09T01:06:07.871Z,13.70
2024-05-09T01:08:37.841Z,14.07
2024-05-09T01:11:08.018Z,12.75
2024-05-09T01:13:40.575Z,13.00
2024-05-09T01:16:10.543Z,13.77
2024-05-09T01:18:40.529Z,12.93
2024-05-09T01:21:10.502Z,15.05
2024-05-09T01:23:42.996Z,13.18
2024-05-09T01:26:12.867Z,12.57
2024-05-09T01:28:42.617Z,14.55
2024-05-09T01:31:15.857Z,12.73
2024-05-09T01:33:46.241Z,12.63
2024-05-09T01:36:16.054Z,12.80
2024-05-09T01:38:48.422Z,12.27
2024-05-09T01:41:18.309Z,14.40
2024-05-09T01:43:48.131Z,12.65
2024-05-09T01:46:19.453Z,12.52
2024-05-09T01:48:49.672Z,15.15
2024-05-09T01:51:19.761Z,15.67
2024-05-09T01:53:52.154Z,14.48
2024-05-09T01:56:21.991Z,14.18
2024-05-09T01:58:51.919Z,14.85
2024-05-09T02:01:21.946Z,14.65
2024-05-09T02:03:52.977Z,13.13
2024-05-09T02:06:23.124Z,14.18
2024-05-09T02:08:55.418Z,14.13
2024-05-09T02:11:25.448Z,14.35
2024-05-09T02:13:55.357Z,14.38
2024-05-09T02:16:25.383Z,13.63
2024-05-09T02:18:55.250Z,13.35
2024-05-09T02:21:25.076Z,12.60
2024-05-09T02:23:57.398Z,12.82
2024-05-09T02:26:27.150Z,14.00
2024-05-09T02:28:56.951Z,12.40
2024-05-09T02:31:26.964Z,12.65
2024-05-09T02:33:56.907Z,12.65
2024-05-09T02:36:24.166Z,13.43
2024-05-09T02:38:53.942Z,12.38
2024-05-09T02:41:23.804Z,13.63
2024-05-09T02:43:53.642Z,12.85
2024-05-09T02:46:20.831Z,12.07
2024-05-09T02:48:50.713Z,15.68
2024-05-09T02:51:17.938Z,13.32
2024-05-09T02:53:47.607Z,13.50
2024-05-09T02:56:14.744Z,13.32
2024-05-09T02:58:47.136Z,15.52
2024-05-09T03:01:17.083Z,11.93
2024-05-09T03:03:48.517Z,12.98
2024-05-09T03:06:15.740Z,13.83
2024-05-09T03:08:47.362Z,14.98
2024-05-09T03:11:21.146Z,13.88
2024-05-09T03:13:53.787Z,13.07
2024-05-09T03:16:20.930Z,13.65
2024-05-09T03:18:50.712Z,14.17
2024-05-09T03:21:18.012Z,14.63
2024-05-09T03:23:47.763Z,14.38
2024-05-09T03:26:16.030Z,15.38
2024-05-09T03:28:46.260Z,14.95
2024-05-09T03:31:18.657Z,13.27
2024-05-09T03:33:48.482Z,12.95
2024-05-09T03:36:15.692Z,13.73
2024-05-09T03:38:45.526Z,12.98
2024-05-09T03:41:15.594Z,13.77
2024-05-09T03:43:47.108Z,13.03
2024-05-09T03:46:19.481Z,12.20
2024-05-09T03:48:46.672Z,15.68
2024-05-09T03:51:17.153Z,14.63
2024-05-09T03:53:44.378Z,15.82
2024-05-09T03:56:14.091Z,12.60
2024-05-09T03:58:42.127Z,13.38
2024-05-09T04:01:11.944Z,16.33
2024-05-09T04:03:42.039Z,16.35
2024-05-09T04:06:11.862Z,15.70
2024-05-09T04:08:39.130Z,14.57
2024-05-09T04:11:09.795Z,14.23
2024-05-09T04:13:37.052Z,14.63
2024-05-09T04:16:06.974Z,14.68
2024-05-09T04:18:34.222Z,13.35
2024-05-09T04:21:07.551Z,13.37
2024-05-09T04:23:34.784Z,16.67
2024-05-09T04:26:05.828Z,13.57
2024-05-09T04:28:33.022Z,16.00
2024-05-09T04:31:02.868Z,16.13
2024-05-09T04:33:30.828Z,16.93
2024-05-09T04:36:00.816Z,17.42
2024-05-09T04:38:30.674Z,16.15
2024-05-09T04:41:00.794Z,16.90
2024-05-09T04:43:28.028Z,19.70
2024-05-09T04:45:57.681Z,18.03
2024-05-09T04:48:25.122Z,16.27
2024-05-09T04:50:55.143Z,15.30
2024-05-09T04:53:22.490Z,12.82
2024-05-09T04:55:55.054Z,15.30
2024-05-09T04:58:22.314Z,14.27
2024-05-09T05:00:52.108Z,14.45
2024-05-09T05:03:19.527Z,15.43
2024-05-09T05:05:49.384Z,14.90
2024-05-09T05:08:18.430Z,13.85
2024-05-09T05:10:49.576Z,15.07
2024-05-09T05:13:21.069Z,19.23
2024-05-09T05:15:53.589Z,19.15
2024-05-09T05:18:21.612Z,18.25
2024-05-09T05:20:51.700Z,15.25
2024-05-09T05:23:19.648Z,14.67
2024-05-09T05:25:50.458Z,13.93
2024-05-09T05:28:20.379Z,14.60
2024-05-09T05:30:50.387Z,14.90
2024-05-09T05:33:19.136Z,14.75
2024-05-09T05:35:49.350Z,13.33
2024-05-09T05:38:16.671Z,14.95
2024-05-09T05:40:46.500Z,17.25
2024-05-09T05:43:17.165Z,15.10
2024-05-09T05:45:49.835Z,15.77
2024-05-09T05:48:17.846Z,15.30
2024-05-09T05:50:48.110Z,16.92
2024-05-09T05:53:15.713Z,15.82
2024-05-09T05:55:45.640Z,16.27
2024-05-09T05:58:14.411Z,18.42
2024-05-09T06:00:44.584Z,16.93
2024-05-09T06:03:14.826Z,18.80
2024-05-09T06:05:46.176Z,17.95
2024-05-09T06:08:13.503Z,19.35
2024-05-09T06:10:43.361Z,20.60
2024-05-09T06:13:11.488Z,17.47
2024-05-09T06:15:42.024Z,21.27
2024-05-09T06:18:10.855Z,22.48
2024-05-09T06:20:45.623Z,25.00
2024-05-09T06:23:13.352Z,28.02
2024-05-09T06:25:43.999Z,26.97
2024-05-09T06:28:11.588Z,29.90
2024-05-09T06:30:42.696Z,26.75
2024-05-09T06:33:12.789Z,29.95
2024-05-09T06:35:47.340Z,26.38
2024-05-09T06:38:14.759Z,27.63
2024-05-09T06:40:45.079Z,25.35
2024-05-09T06:43:12.742Z,25.98
2024-05-09T06:45:42.566Z,30.73
2024-05-09T06:48:10.470Z,28.35
2024-05-09T06:50:40.743Z,25.67
2024-05-09T06:53:10.747Z,25.95
2024-05-09T06:55:40.714Z,27.73
2024-05-09T06:58:10.924Z,24.17
2024-05-09T07:00:42.089Z,22.42
2024-05-09T07:03:11.180Z,20.93
2024-05-09T07:05:42.285Z,23.05
2024-05-09T07:08:12.291Z,22.90
2024-05-09T07:10:42.351Z,24.50
2024-05-09T07:13:10.143Z,21.20
2024-05-09T07:15:40.309Z,20.40
2024-05-09T07:18:11.336Z,19.85
2024-05-09T07:20:41.726Z,18.15
2024-05-09T07:23:12.142Z,20.60
2024-05-09T07:25:42.551Z,18.23
2024-05-09T07:28:10.704Z,17.70
2024-05-09T07:30:40.656Z,19.98
2024-05-09T07:33:07.988Z,16.35
2024-05-09T07:35:38.418Z,16.65
2024-05-09T07:38:05.600Z,17.00
2024-05-09T07:40:38.667Z,15.63
2024-05-09T07:43:07.139Z,15.68
2024-05-09T07:45:48.497Z,15.85
2024-05-09T07:52:37.350Z,17.52
2024-05-09T07:53:45.422Z,17.13
2024-05-09T07:56:23.067Z,19.02
2024-05-09T07:58:52.161Z,16.50
2024-05-09T08:01:22.709Z,13.40
2024-05-09T08:03:50.204Z,14.18
2024-05-09T08:06:20.511Z,12.00
2024-05-09T08:08:47.889Z,13.15
2024-05-09T08:11:17.997Z,16.95
2024-05-09T08:13:47.758Z,15.85
2024-05-09T08:16:17.517Z,14.38
2024-05-09T08:18:44.817Z,13.67
2024-05-09T08:21:14.682Z,14.48
2024-05-09T08:23:42.156Z,15.98
2024-05-09T08:26:12.093Z,14.52
2024-05-09T08:28:39.379Z,13.95
2024-05-09T08:31:11.957Z,13.07
2024-05-09T08:33:44.060Z,13.50
2024-05-09T08:36:13.906Z,14.85
2024-05-09T08:38:41.046Z,12.68
2024-05-09T08:41:10.837Z,13.70
2024-05-09T08:43:41.514Z,13.77
2024-05-09T08:46:14.565Z,14.45
2024-05-09T08:48:44.076Z,14.80
2024-05-09T08:51:14.341Z,14.05
2024-05-09T08:53:41.641Z,15.40
2024-05-09T08:56:12.687Z,14.83
2024-05-09T08:58:41.080Z,15.85
2024-05-09T09:01:16.204Z,15.43
2024-05-09T09:03:44.032Z,13.75
2024-05-09T09:06:18.250Z,17.33
2024-05-09T09:08:45.432Z,16.00
2024-05-09T09:11:15.443Z,15.77
2024-05-09T09:13:42.974Z,14.63
2024-05-09T09:16:16.300Z,14.80
2024-05-09T09:18:44.857Z,16.85
2024-05-09T09:21:14.961Z,15.87
2024-05-09T09:23:42.180Z,16.15
2024-05-09T09:26:11.948Z,17.42
2024-05-09T09:28:40.732Z,17.50
2024-05-09T09:31:10.548Z,16.80
2024-05-09T09:33:45.062Z,17.80
2024-05-09T09:36:15.927Z,15.52
2024-05-09T09:38:44.051Z,18.50
2024-05-09T09:41:15.654Z,15.10
2024-05-09T09:43:42.958Z,16.60
2024-05-09T09:46:13.270Z,16.73
2024-05-09T09:48:40.940Z,15.27
2024-05-09T09:51:13.767Z,15.90
2024-05-09T09:53:42.480Z,14.50
2024-05-09T09:56:13.124Z,13.68
2024-05-09T09:58:40.525Z,16.43
2024-05-09T10:01:10.523Z,15.75
2024-05-09T10:03:38.182Z,17.20
2024-05-09T10:06:08.534Z,14.27
2024-05-09T10:08:38.545Z,13.73
2024-05-09T10:11:09.033Z,16.07
2024-05-09T10:13:36.506Z,16.45
2024-05-09T10:16:10.410Z,15.82
2024-05-09T10:18:38.281Z,14.52
2024-05-09T10:21:18.131Z,15.88
2024-05-09T10:23:56.726Z,13.20
2024-05-09T10:26:32.877Z,12.52
2024-05-09T10:29:00.145Z,15.48
2024-05-09T10:31:31.682Z,13.40
2024-05-09T10:34:00.724Z,16.13
2024-05-09T10:36:32.033Z,13.87
2024-05-09T10:39:02.123Z,14.27
2024-05-09T10:41:32.118Z,12.93
2024-05-09T10:43:59.920Z,12.63
2024-05-09T10:46:29.870Z,12.25
2024-05-09T10:48:59.611Z,13.00
2024-05-09T10:51:30.961Z,13.75
2024-05-09T10:53:59.040Z,14.10
2024-05-09T10:56:31.375Z,12.77
2024-05-09T10:58:58.531Z,12.27
2024-05-09T11:01:28.452Z,11.77
2024-05-09T11:03:56.744Z,15.55
2024-05-09T11:06:26.710Z,15.32
2024-05-09T11:08:53.980Z,16.98
2024-05-09T11:11:24.016Z,13.25
2024-05-09T11:13:53.788Z,12.00
2024-05-09T11:16:23.771Z,12.88
2024-05-09T11:18:55.776Z,8.45
2024-05-09T11:21:26.965Z,10.85
2024-05-09T11:23:54.529Z,12.98
2024-05-09T11:26:25.559Z,12.53
2024-05-09T11:28:55.595Z,11.85
2024-05-09T11:31:25.736Z,10.73
2024-05-09T11:33:54.675Z,13.98
2024-05-09T11:36:25.144Z,11.85
2024-05-09T11:38:52.279Z,10.60
2024-05-09T11:41:22.038Z,10.85
2024-05-09T11:43:49.265Z,12.32
2024-05-09T11:46:21.948Z,13.25
2024-05-09T11:48:49.378Z,11.85
2024-05-09T11:51:19.323Z,11.97
2024-05-09T11:53:46.540Z,9.77
2024-05-09T11:56:17.477Z,10.63
2024-05-09T11:58:44.887Z,11.50
2024-05-09T12:01:14.708Z,11.73
2024-05-09T12:03:44.806Z,14.13
2024-05-09T12:06:14.782Z,13.98
2024-05-09T12:08:42.169Z,15.88
2024-05-09T12:11:13.745Z,13.43
2024-05-09T12:13:41.074Z,14.13
2024-05-09T12:16:11.642Z,12.73
2024-05-09T12:18:38.999Z,12.23
2024-05-09T12:21:11.726Z,12.55
2024-05-09T12:23:38.962Z,13.20
2024-05-09T12:26:10.102Z,12.60
2024-05-09T12:28:37.461Z,13.63
2024-05-09T12:31:07.406Z,14.13
2024-05-09T12:33:34.899Z,12.35
2024-05-09T12:36:04.889Z,13.50
2024-05-09T12:38:34.910Z,14.45
2024-05-09T12:41:04.953Z,15.13
2024-05-09T12:43:32.302Z,13.85
2024-05-09T12:46:03.636Z,14.32
2024-05-09T12:48:31.064Z,13.15
2024-05-09T12:51:00.887Z,14.45
2024-05-09T12:53:28.142Z,11.20
2024-05-09T12:56:02.978Z,12.38
2024-05-09T12:58:31.752Z,12.60
2024-05-09T13:01:01.795Z,10.75
2024-05-09T13:03:29.565Z,11.23
2024-05-09T13:05:59.687Z,10.57
2024-05-09T13:08:27.168Z,10.50
2024-05-09T13:10:57.043Z,13.57
2024-05-09T13:13:26.869Z,15.60
2024-05-09T13:15:57.027Z,14.88
2024-05-09T13:18:24.334Z,16.33
2024-05-09T13:20:54.109Z,15.05
2024-05-09T13:23:21.206Z,13.63
2024-05-09T13:25:50.886Z,16.65
2024-05-09T13:28:18.198Z,16.88
2024-05-09T13:30:50.643Z,18.07
2024-05-09T13:33:18.168Z,14.85
2024-05-09T13:35:50.558Z,12.15
2024-05-09T13:38:19.056Z,11.90
2024-05-09T13:40:50.034Z,13.88
2024-05-09T13:43:18.306Z,12.73
2024-05-09T13:45:51.980Z,13.55
2024-05-09T13:48:19.750Z,12.20
2024-05-09T13:50:49.955Z,13.32
2024-05-09T13:53:17.186Z,14.27
2024-05-09T13:55:47.011Z,13.27
2024-05-09T13:58:14.461Z,15.55
2024-05-09T14:00:49.051Z,14.60
2024-05-09T14:03:20.615Z,12.52
2024-05-09T14:05:52.300Z,14.45
2024-05-09T14:08:21.949Z,16.87
2024-05-09T14:10:53.696Z,14.85
2024-05-09T14:13:21.155Z,13.93
2024-05-09T14:15:51.374Z,12.98
2024-05-09T14:18:21.539Z,14.70
2024-05-09T14:20:51.352Z,12.40
2024-05-09T14:23:18.478Z,11.63
2024-05-09T14:25:52.080Z,11.80
2024-05-09T14:28:20.684Z,11.93
2024-05-09T14:30:50.711Z,12.65
2024-05-09T14:33:25.648Z,13.10
2024-05-09T14:35:55.729Z,14.93
2024-05-09T14:38:23.520Z,14.45
2024-05-09T14:40:53.568Z,14.40
2024-05-09T14:43:21.115Z,14.05
2024-05-09T14:45:51.272Z,15.60
2024-05-09T14:48:21.365Z,17.55
2024-05-09T14:50:51.271Z,16.33
2024-05-09T14:53:18.467Z,16.05
2024-05-09T14:55:49.682Z,16.20
2024-05-09T14:58:17.136Z,15.67
2024-05-09T15:00:51.164Z,16.90
2024-05-09T15:03:22.582Z,15.13
2024-05-09T15:05:52.950Z,14.63
2024-05-09T15:08:20.461Z,13.57
2024-05-09T15:10:52.108Z,15.00
2024-05-09T15:13:19.743Z,12.18
2024-05-09T15:15:50.165Z,15.23
2024-05-09T15:18:17.992Z,14.90
2024-05-09T15:20:50.939Z,14.27
2024-05-09T15:23:18.163Z,13.83
2024-05-09T15:25:48.182Z,16.60
2024-05-09T15:28:15.643Z,19.65
2024-05-09T15:30:46.876Z,17.52
2024-05-09T15:33:14.548Z,17.13
2024-05-09T15:35:46.786Z,17.00
2024-05-09T15:38:18.363Z,19.35
2024-05-09T15:40:48.670Z,17.45
2024-05-09T15:43:16.068Z,17.05
2024-05-09T15:45:46.079Z,17.58
2024-05-09T15:48:14.385Z,17.20
2024-05-09T15:50:44.578Z,15.93
2024-05-09T15:53:13.254Z,18.08
2024-05-09T15:55:46.389Z,18.15
2024-05-09T15:58:14.123Z,18.17
2024-05-09T16:00:46.331Z,17.30
2024-05-09T16:03:15.665Z,14.80
2024-05-09T16:05:47.044Z,15.93
2024-05-09T16:08:15.246Z,15.80
2024-05-09T16:10:49.533Z,14.85
2024-05-09T16:13:17.642Z,12.77
2024-05-09T16:15:48.195Z,15.45
2024-05-09T16:18:15.716Z,14.98
2024-05-09T16:20:48.436Z,13.20
2024-05-09T16:23:19.822Z,13.50
2024-05-09T16:25:52.549Z,13.27
2024-05-09T16:28:20.528Z,13.70
2024-05-09T16:30:51.845Z,13.50
2024-05-09T16:33:23.465Z,15.15
2024-05-09T16:35:53.358Z,11.85
2024-05-09T16:38:20.593Z,11.30
2024-05-09T16:40:53.292Z,11.95
2024-05-09T16:43:20.681Z,11.10
2024-05-09T16:45:50.775Z,10.52
2024-05-09T16:48:18.088Z,10.93
2024-05-09T16:50:48.073Z,10.03
2024-05-09T16:53:15.230Z,11.05
2024-05-09T16:55:45.126Z,12.93
2024-05-09T16:58:15.966Z,10.82
2024-05-09T17:00:46.025Z,13.18
2024-05-09T17:03:15.276Z,12.53
2024-05-09T17:05:47.417Z,10.90
2024-05-09T17:08:16.287Z,12.95
2024-05-09T17:10:46.585Z,11.35
2024-05-09T17:13:19.783Z,12.88
2024-05-09T17:15:50.470Z,11.90
2024-05-09T17:18:21.051Z,12.20
2024-05-09T17:20:52.470Z,12.10
2024-05-09T17:23:19.721Z,11.65
2024-05-09T17:25:49.652Z,13.35
2024-05-09T17:28:19.781Z,12.73
2024-05-09T17:30:49.944Z,11.80
2024-05-09T17:33:17.603Z,15.68
2024-05-09T17:35:50.776Z,13.10
2024-05-09T17:38:18.540Z,12.40
2024-05-09T17:40:48.547Z,14.93
2024-05-09T17:43:15.801Z,15.48
2024-05-09T17:45:48.728Z,14.95
2024-05-09T17:48:16.131Z,18.95
2024-05-09T17:50:46.052Z,14.82
2024-05-09T17:53:13.266Z,17.10
2024-05-09T17:55:43.285Z,14.00
2024-05-09T17:58:11.924Z,13.18
2024-05-09T18:00:42.803Z,15.77
2024-05-09T18:03:13.797Z,13.57
2024-05-09T18:05:45.196Z,16.17
2024-05-09T18:08:13.721Z,14.38
2024-05-09T18:10:44.464Z,13.60
2024-05-09T18:13:12.429Z,16.88
2024-05-09T18:15:42.565Z,13.32
2024-05-09T18:18:10.633Z,12.47
2024-05-09T18:20:45.793Z,12.98
2024-05-09T18:23:14.826Z,12.82
2024-05-09T18:25:46.180Z,12.80
2024-05-09T18:28:13.689Z,14.30
2024-05-09T18:30:43.737Z,11.77
2024-05-09T18:33:11.739Z,11.65
2024-05-09T18:35:45.637Z,11.60
2024-05-09T18:38:13.145Z,12.23
2024-05-09T18:40:45.112Z,12.95
2024-05-09T18:43:14.603Z,13.50
2024-05-09T18:45:44.816Z,13.45
2024-05-09T18:48:12.766Z,14.27
2024-05-09T18:50:45.355Z,12.95
2024-05-09T18:53:13.499Z,15.07
2024-05-09T18:55:44.000Z,13.83
2024-05-09T18:58:11.363Z,15.38
2024-05-09T19:01:02.060Z,13.90
2024-05-09T19:03:50.278Z,13.77
2024-05-09T19:06:24.711Z,14.32
2024-05-09T19:08:52.183Z,17.00
2024-05-09T19:11:21.961Z,15.68
2024-05-09T19:13:49.176Z,13.35
2024-05-09T19:16:19.297Z,16.17
2024-05-09T19:18:46.878Z,16.02
2024-05-09T19:21:16.815Z,16.40
2024-05-09T19:23:51.902Z,16.10
2024-05-09T19:26:22.353Z,22.60
2024-05-09T19:28:49.790Z,16.33
2024-05-09T19:31:19.684Z,15.77
2024-05-09T19:33:46.978Z,18.33
2024-05-09T19:36:19.397Z,16.80
2024-05-09T19:38:51.633Z,16.77
2024-05-09T19:41:21.599Z,15.38
2024-05-09T19:43:48.723Z,13.60
2024-05-09T19:46:19.037Z,14.20
2024-05-09T19:48:46.734Z,13.45
2024-05-09T19:51:16.504Z,11.77
2024-05-09T19:53:43.664Z,12.95
2024-05-09T19:56:16.302Z,14.68
2024-05-09T19:58:44.522Z,14.10
2024-05-09T20:01:14.331Z,14.20
2024-05-09T20:03:41.738Z,16.73
2024-05-09T20:06:12.046Z,14.23
2024-05-09T20:08:39.283Z,13.07
2024-05-09T20:11:09.030Z,12.00
2024-05-09T20:13:39.490Z,13.05
2024-05-09T20:16:09.948Z,12.60
2024-05-09T20:18:37.384Z,14.27
2024-05-09T20:21:07.581Z,15.63
2024-05-09T20:23:34.871Z,14.23
2024-05-09T20:26:04.776Z,15.48
2024-05-09T20:28:32.391Z,16.08
2024-05-09T20:31:05.962Z,15.40
2024-05-09T20:33:33.310Z,14.88
2024-05-09T20:36:03.127Z,16.20
2024-05-09T20:38:30.320Z,15.50
2024-05-09T20:41:00.146Z,15.20
2024-05-09T20:43:27.284Z,17.63
2024-05-09T20:45:57.077Z,17.88
2024-05-09T20:48:27.099Z,20.63
2024-05-09T20:50:56.796Z,17.88
2024-05-09T20:53:23.943Z,20.77
2024-05-09T20:55:53.750Z,17.45
2024-05-09T20:58:21.388Z,16.25
2024-05-09T21:00:51.334Z,16.53
2024-05-09T21:03:18.699Z,14.40
2024-05-09T21:05:51.232Z,16.50
2024-05-09T21:08:18.688Z,16.20
2024-05-09T21:10:48.776Z,13.98
2024-05-09T21:13:16.058Z,14.60
2024-05-09T21:15:46.174Z,15.52
2024-05-09T21:18:13.714Z,15.55
2024-05-09T21:20:43.629Z,15.18
2024-05-09T21:23:13.411Z,16.77
2024-05-09T21:25:43.372Z,15.97
2024-05-09T21:28:10.626Z,15.90
2024-05-09T21:30:42.791Z,14.85
2024-05-09T21:33:12.544Z,16.38
2024-05-09T21:35:44.526Z,14.65
2024-05-09T21:38:15.439Z,15.40
2024-05-09T21:40:45.726Z,15.80
2024-05-09T21:43:13.198Z,16.27
2024-05-09T21:45:43.259Z,14.00
2024-05-09T21:48:12.795Z,15.65
2024-05-09T21:50:42.955Z,14.53
2024-05-09T21:53:10.524Z,18.85
2024-05-09T21:55:43.249Z,17.10
2024-05-09T21:58:12.580Z,16.98
2024-05-09T22:00:45.680Z,17.73
2024-05-09T22:03:13.110Z,16.33
2024-05-09T22:05:44.563Z,16.25
2024-05-09T22:08:12.690Z,17.58
2024-05-09T22:10:45.287Z,18.63
2024-05-09T22:13:12.589Z,17.33
2024-05-09T22:15:42.706Z,18.40
2024-05-09T22:18:11.050Z,17.40
2024-05-09T22:20:45.053Z,18.67
2024-05-09T22:23:13.227Z,18.98
2024-05-09T22:25:46.073Z,18.00
2024-05-09T22:28:15.262Z,19.67
2024-05-09T22:30:47.434Z,18.75
2024-05-09T22:33:15.793Z,19.38
2024-05-09T22:35:45.860Z,19.90
2024-05-09T22:38:13.144Z,22.88
2024-05-09T22:40:48.805Z,19.80
2024-05-09T22:43:18.443Z,18.85
2024-05-09T22:45:49.515Z,22.52
2024-05-09T22:48:17.063Z,21.42
2024-05-09T22:50:47.232Z,23.95
2024-05-09T22:53:14.617Z,22.60
2024-05-09T22:55:47.415Z,20.60
2024-05-09T22:58:14.639Z,24.25
2024-05-09T23:00:44.587Z,24.20
2024-05-09T23:03:12.011Z,22.00
2024-05-09T23:05:41.775Z,23.13
2024-05-09T23:08:08.885Z,23.42
2024-05-09T23:10:38.875Z,25.02
2024-05-09T23:13:08.908Z,23.92
2024-05-09T23:15:39.475Z,24.52
2024-05-09T23:18:06.847Z,23.17
2024-05-09T23:20:39.433Z,22.85
2024-05-09T23:23:07.669Z,23.20
2024-05-09T23:25:37.765Z,23.05
2024-05-09T23:28:05.444Z,25.48
2024-05-09T23:30:40.374Z,24.77
2024-05-09T23:33:10.020Z,24.83
2024-05-09T23:35:40.237Z,24.15
2024-05-09T23:38:07.379Z,26.10
2024-05-09T23:40:40.127Z,24.50
2024-05-09T23:43:09.470Z,23.03
2024-05-09T23:45:42.501Z,24.60
2024-05-09T23:48:10.063Z,29.10
2024-05-09T23:50:40.873Z,27.77
2024-05-09T23:53:09.721Z,24.63
2024-05-09T23:55:40.590Z,26.63
2024-05-09T23:58:08.291Z,25.27
